sensor_id;sensor_type;location;lat;lon;timestamp;P1;durP1;ratioP1;P2;durP2;ratioP2
49828;SDS011;35723;51.194;5.112;2023-07-31T00:00:24;21.30;;;5.30;;
49828;SDS011;35723;51.194;5.112;2023-07-31T00:02:49;24.63;;;5.70;;
49828;SDS011;35723;51.194;5.112;2023-07-31T00:05:17;21.00;;;5.10;;
49828;SDS011;35723;51.194;5.112;2023-07-31T00:07:42;20.67;;;5.75;;
49828;SDS011;35723;51.194;5.112;2023-07-31T00:10:08;16.98;;;5.35;;
49828;SDS011;35723;51.194;5.112;2023-07-31T00:12:34;20.33;;;5.10;;
49828;SDS011;35723;51.194;5.112;2023-07-31T00:15:00;17.63;;;4.80;;
49828;SDS011;35723;51.194;5.112;2023-07-31T00:17:26;22.55;;;5.18;;
49828;SDS011;35723;51.194;5.112;2023-07-31T00:19:51;20.75;;;5.18;;
49828;SDS011;35723;51.194;5.112;2023-07-31T00:22:17;19.42;;;4.90;;
49828;SDS011;35723;51.194;5.112;2023-07-31T00:24:43;17.65;;;4.93;;
49828;SDS011;35723;51.194;5.112;2023-07-31T00:27:08;19.30;;;4.57;;
49828;SDS011;35723;51.194;5.112;2023-07-31T00:29:34;20.05;;;5.50;;
49828;SDS011;35723;51.194;5.112;2023-07-31T00:32:00;24.38;;;5.32;;
49828;SDS011;35723;51.194;5.112;2023-07-31T00:34:26;21.90;;;5.28;;
49828;SDS011;35723;51.194;5.112;2023-07-31T00:36:51;19.90;;;5.00;;
49828;SDS011;35723;51.194;5.112;2023-07-31T00:39:17;22.15;;;5.50;;
49828;SDS011;35723;51.194;5.112;2023-07-31T00:41:42;22.77;;;5.50;;
49828;SDS011;35723;51.194;5.112;2023-07-31T00:44:08;20.52;;;5.20;;
49828;SDS011;35723;51.194;5.112;2023-07-31T00:46:34;21.42;;;5.35;;
49828;SDS011;35723;51.194;5.112;2023-07-31T00:48:59;19.48;;;5.10;;
49828;SDS011;35723;51.194;5.112;2023-07-31T00:51:25;23.70;;;5.68;;
49828;SDS011;35723;51.194;5.112;2023-07-31T00:53:51;23.00;;;5.25;;
49828;SDS011;35723;51.194;5.112;2023-07-31T00:56:19;20.95;;;5.20;;
49828;SDS011;35723;51.194;5.112;2023-07-31T00:58:44;22.80;;;5.35;;
49828;SDS011;35723;51.194;5.112;2023-07-31T01:01:10;18.60;;;4.88;;
49828;SDS011;35723;51.194;5.112;2023-07-31T01:03:36;24.27;;;5.30;;
49828;SDS011;35723;51.194;5.112;2023-07-31T01:06:06;21.30;;;5.30;;
49828;SDS011;35723;51.194;5.112;2023-07-31T01:08:48;21.42;;;5.25;;
49828;SDS011;35723;51.194;5.112;2023-07-31T01:11:38;23.42;;;6.25;;
49828;SDS011;35723;51.194;5.112;2023-07-31T01:14:13;24.05;;;5.88;;
49828;SDS011;35723;51.194;5.112;2023-07-31T01:16:39;21.85;;;5.00;;
49828;SDS011;35723;51.194;5.112;2023-07-31T01:19:05;19.30;;;5.45;;
49828;SDS011;35723;51.194;5.112;2023-07-31T01:22:39;25.48;;;6.03;;
49828;SDS011;35723;51.194;5.112;2023-07-31T01:28:05;22.88;;;5.85;;
49828;SDS011;35723;51.194;5.112;2023-07-31T01:30:40;22.10;;;5.72;;
49828;SDS011;35723;51.194;5.112;2023-07-31T01:33:08;20.98;;;5.45;;
49828;SDS011;35723;51.194;5.112;2023-07-31T01:35:34;21.40;;;5.35;;
49828;SDS011;35723;51.194;5.112;2023-07-31T01:38:01;23.23;;;5.88;;
49828;SDS011;35723;51.194;5.112;2023-07-31T01:40:27;21.20;;;5.35;;
49828;SDS011;35723;51.194;5.112;2023-07-31T01:42:53;24.73;;;5.05;;
49828;SDS011;35723;51.194;5.112;2023-07-31T01:45:19;23.80;;;6.10;;
49828;SDS011;35723;51.194;5.112;2023-07-31T01:47:45;20.98;;;5.30;;
49828;SDS011;35723;51.194;5.112;2023-07-31T01:50:10;21.40;;;5.18;;
49828;SDS011;35723;51.194;5.112;2023-07-31T01:52:36;19.95;;;5.57;;
49828;SDS011;35723;51.194;5.112;2023-07-31T01:55:02;24.42;;;5.53;;
49828;SDS011;35723;51.194;5.112;2023-07-31T01:57:27;23.30;;;5.80;;
49828;SDS011;35723;51.194;5.112;2023-07-31T01:59:53;23.10;;;5.60;;
49828;SDS011;35723;51.194;5.112;2023-07-31T02:02:19;20.17;;;5.43;;
49828;SDS011;35723;51.194;5.112;2023-07-31T02:04:45;20.35;;;5.25;;
49828;SDS011;35723;51.194;5.112;2023-07-31T02:07:12;23.15;;;5.72;;
49828;SDS011;35723;51.194;5.112;2023-07-31T02:09:37;25.50;;;5.63;;
49828;SDS011;35723;51.194;5.112;2023-07-31T02:12:03;21.90;;;5.55;;
49828;SDS011;35723;51.194;5.112;2023-07-31T02:14:29;20.50;;;5.82;;
49828;SDS011;35723;51.194;5.112;2023-07-31T02:16:54;21.60;;;5.88;;
49828;SDS011;35723;51.194;5.112;2023-07-31T02:19:20;20.92;;;5.00;;
49828;SDS011;35723;51.194;5.112;2023-07-31T02:21:46;20.40;;;5.25;;
49828;SDS011;35723;51.194;5.112;2023-07-31T02:24:11;18.20;;;5.20;;
49828;SDS011;35723;51.194;5.112;2023-07-31T02:26:37;21.95;;;5.35;;
49828;SDS011;35723;51.194;5.112;2023-07-31T02:29:02;25.95;;;6.03;;
49828;SDS011;35723;51.194;5.112;2023-07-31T02:31:28;25.60;;;5.85;;
49828;SDS011;35723;51.194;5.112;2023-07-31T02:33:54;21.52;;;5.40;;
49828;SDS011;35723;51.194;5.112;2023-07-31T02:36:19;22.55;;;5.75;;
49828;SDS011;35723;51.194;5.112;2023-07-31T02:38:45;21.92;;;5.00;;
49828;SDS011;35723;51.194;5.112;2023-07-31T02:41:11;22.08;;;5.43;;
49828;SDS011;35723;51.194;5.112;2023-07-31T02:43:36;21.55;;;5.18;;
49828;SDS011;35723;51.194;5.112;2023-07-31T02:46:02;20.95;;;5.40;;
49828;SDS011;35723;51.194;5.112;2023-07-31T02:48:27;20.98;;;5.50;;
49828;SDS011;35723;51.194;5.112;2023-07-31T02:50:53;21.40;;;5.47;;
49828;SDS011;35723;51.194;5.112;2023-07-31T02:53:19;20.13;;;5.38;;
49828;SDS011;35723;51.194;5.112;2023-07-31T02:55:45;15.70;;;5.07;;
49828;SDS011;35723;51.194;5.112;2023-07-31T02:58:10;19.65;;;5.68;;
49828;SDS011;35723;51.194;5.112;2023-07-31T03:00:36;20.55;;;5.30;;
49828;SDS011;35723;51.194;5.112;2023-07-31T03:03:07;19.27;;;5.53;;
49828;SDS011;35723;51.194;5.112;2023-07-31T03:05:33;23.02;;;5.60;;
49828;SDS011;35723;51.194;5.112;2023-07-31T03:07:58;20.02;;;5.38;;
49828;SDS011;35723;51.194;5.112;2023-07-31T03:10:24;19.73;;;5.82;;
49828;SDS011;35723;51.194;5.112;2023-07-31T03:12:50;22.35;;;6.15;;
49828;SDS011;35723;51.194;5.112;2023-07-31T03:15:15;24.30;;;5.60;;
49828;SDS011;35723;51.194;5.112;2023-07-31T03:17:41;19.77;;;5.45;;
49828;SDS011;35723;51.194;5.112;2023-07-31T03:20:07;21.88;;;5.10;;
49828;SDS011;35723;51.194;5.112;2023-07-31T03:22:33;21.05;;;6.00;;
49828;SDS011;35723;51.194;5.112;2023-07-31T03:25:00;26.23;;;5.22;;
49828;SDS011;35723;51.194;5.112;2023-07-31T03:27:26;22.15;;;5.70;;
49828;SDS011;35723;51.194;5.112;2023-07-31T03:29:52;22.33;;;5.72;;
49828;SDS011;35723;51.194;5.112;2023-07-31T03:32:18;20.77;;;5.43;;
49828;SDS011;35723;51.194;5.112;2023-07-31T03:34:43;20.70;;;5.38;;
49828;SDS011;35723;51.194;5.112;2023-07-31T03:37:09;18.85;;;5.45;;
49828;SDS011;35723;51.194;5.112;2023-07-31T03:39:35;23.52;;;5.95;;
49828;SDS011;35723;51.194;5.112;2023-07-31T03:42:00;20.38;;;5.70;;
49828;SDS011;35723;51.194;5.112;2023-07-31T03:44:26;20.73;;;5.60;;
49828;SDS011;35723;51.194;5.112;2023-07-31T03:46:52;20.77;;;5.63;;
49828;SDS011;35723;51.194;5.112;2023-07-31T03:49:17;21.25;;;5.63;;
49828;SDS011;35723;51.194;5.112;2023-07-31T03:51:43;19.73;;;6.15;;
49828;SDS011;35723;51.194;5.112;2023-07-31T03:54:09;20.63;;;5.93;;
49828;SDS011;35723;51.194;5.112;2023-07-31T03:56:35;19.58;;;5.35;;
49828;SDS011;35723;51.194;5.112;2023-07-31T03:59:01;17.63;;;5.43;;
49828;SDS011;35723;51.194;5.112;2023-07-31T04:01:26;18.38;;;6.07;;
49828;SDS011;35723;51.194;5.112;2023-07-31T04:03:52;20.45;;;5.78;;
49828;SDS011;35723;51.194;5.112;2023-07-31T04:06:17;20.58;;;5.93;;
49828;SDS011;35723;51.194;5.112;2023-07-31T04:08:43;18.45;;;5.28;;
49828;SDS011;35723;51.194;5.112;2023-07-31T04:11:12;19.50;;;5.82;;
49828;SDS011;35723;51.194;5.112;2023-07-31T04:13:39;18.20;;;5.57;;
49828;SDS011;35723;51.194;5.112;2023-07-31T04:16:05;21.80;;;5.88;;
49828;SDS011;35723;51.194;5.112;2023-07-31T04:18:31;22.17;;;5.68;;
49828;SDS011;35723;51.194;5.112;2023-07-31T04:20:57;21.77;;;5.05;;
49828;SDS011;35723;51.194;5.112;2023-07-31T04:23:23;15.57;;;5.10;;
49828;SDS011;35723;51.194;5.112;2023-07-31T04:25:50;19.48;;;5.38;;
49828;SDS011;35723;51.194;5.112;2023-07-31T04:28:16;17.67;;;5.10;;
49828;SDS011;35723;51.194;5.112;2023-07-31T04:30:42;16.77;;;4.95;;
49828;SDS011;35723;51.194;5.112;2023-07-31T04:33:07;15.52;;;5.10;;
49828;SDS011;35723;51.194;5.112;2023-07-31T04:35:33;14.73;;;5.03;;
49828;SDS011;35723;51.194;5.112;2023-07-31T04:37:59;18.25;;;5.72;;
49828;SDS011;35723;51.194;5.112;2023-07-31T04:40:24;18.73;;;5.57;;
49828;SDS011;35723;51.194;5.112;2023-07-31T04:42:50;16.45;;;4.82;;
49828;SDS011;35723;51.194;5.112;2023-07-31T04:45:16;18.23;;;5.50;;
49828;SDS011;35723;51.194;5.112;2023-07-31T04:47:41;13.55;;;5.00;;
49828;SDS011;35723;51.194;5.112;2023-07-31T04:50:07;18.63;;;5.57;;
49828;SDS011;35723;51.194;5.112;2023-07-31T04:52:33;15.43;;;5.22;;
49828;SDS011;35723;51.194;5.112;2023-07-31T04:54:59;14.38;;;5.30;;
49828;SDS011;35723;51.194;5.112;2023-07-31T04:57:24;17.13;;;6.10;;
49828;SDS011;35723;51.194;5.112;2023-07-31T04:59:50;15.00;;;5.68;;
49828;SDS011;35723;51.194;5.112;2023-07-31T05:02:16;16.35;;;5.43;;
49828;SDS011;35723;51.194;5.112;2023-07-31T05:04:41;15.23;;;5.53;;
49828;SDS011;35723;51.194;5.112;2023-07-31T05:07:07;15.73;;;5.50;;
49828;SDS011;35723;51.194;5.112;2023-07-31T05:09:32;17.70;;;5.50;;
49828;SDS011;35723;51.194;5.112;2023-07-31T05:11:58;16.23;;;5.38;;
49828;SDS011;35723;51.194;5.112;2023-07-31T05:14:25;15.00;;;5.47;;
49828;SDS011;35723;51.194;5.112;2023-07-31T05:16:51;18.10;;;5.40;;
49828;SDS011;35723;51.194;5.112;2023-07-31T05:19:17;17.48;;;5.85;;
49828;SDS011;35723;51.194;5.112;2023-07-31T05:21:43;14.85;;;5.80;;
49828;SDS011;35723;51.194;5.112;2023-07-31T05:24:09;15.73;;;5.28;;
49828;SDS011;35723;51.194;5.112;2023-07-31T05:26:35;15.55;;;5.40;;
49828;SDS011;35723;51.194;5.112;2023-07-31T05:29:02;16.65;;;5.45;;
49828;SDS011;35723;51.194;5.112;2023-07-31T05:31:28;15.02;;;5.45;;
49828;SDS011;35723;51.194;5.112;2023-07-31T05:33:54;16.70;;;5.57;;
49828;SDS011;35723;51.194;5.112;2023-07-31T05:36:20;17.15;;;5.30;;
49828;SDS011;35723;51.194;5.112;2023-07-31T05:38:45;18.45;;;5.65;;
49828;SDS011;35723;51.194;5.112;2023-07-31T05:41:14;14.75;;;5.15;;
49828;SDS011;35723;51.194;5.112;2023-07-31T05:43:40;16.13;;;5.40;;
49828;SDS011;35723;51.194;5.112;2023-07-31T05:46:06;13.77;;;5.35;;
49828;SDS011;35723;51.194;5.112;2023-07-31T05:48:32;14.98;;;4.80;;
49828;SDS011;35723;51.194;5.112;2023-07-31T05:50:59;14.43;;;5.47;;
49828;SDS011;35723;51.194;5.112;2023-07-31T05:53:25;13.05;;;4.82;;
49828;SDS011;35723;51.194;5.112;2023-07-31T05:55:51;16.63;;;5.50;;
49828;SDS011;35723;51.194;5.112;2023-07-31T05:58:16;14.20;;;4.95;;
49828;SDS011;35723;51.194;5.112;2023-07-31T06:00:42;13.75;;;4.68;;
49828;SDS011;35723;51.194;5.112;2023-07-31T06:03:07;14.27;;;5.13;;
49828;SDS011;35723;51.194;5.112;2023-07-31T06:05:33;13.95;;;5.20;;
49828;SDS011;35723;51.194;5.112;2023-07-31T06:07:59;13.38;;;5.10;;
49828;SDS011;35723;51.194;5.112;2023-07-31T06:10:25;15.45;;;5.03;;
49828;SDS011;35723;51.194;5.112;2023-07-31T06:12:51;17.60;;;5.00;;
49828;SDS011;35723;51.194;5.112;2023-07-31T06:15:16;15.60;;;4.68;;
49828;SDS011;35723;51.194;5.112;2023-07-31T06:17:44;15.35;;;4.68;;
49828;SDS011;35723;51.194;5.112;2023-07-31T06:20:10;14.55;;;4.60;;
49828;SDS011;35723;51.194;5.112;2023-07-31T06:22:35;10.88;;;4.43;;
49828;SDS011;35723;51.194;5.112;2023-07-31T06:25:01;13.73;;;4.45;;
49828;SDS011;35723;51.194;5.112;2023-07-31T06:27:27;13.00;;;4.45;;
49828;SDS011;35723;51.194;5.112;2023-07-31T06:29:52;13.13;;;4.45;;
49828;SDS011;35723;51.194;5.112;2023-07-31T06:32:18;11.98;;;4.50;;
49828;SDS011;35723;51.194;5.112;2023-07-31T06:34:43;11.77;;;4.65;;
49828;SDS011;35723;51.194;5.112;2023-07-31T06:37:09;12.95;;;4.68;;
49828;SDS011;35723;51.194;5.112;2023-07-31T06:39:35;16.15;;;4.88;;
49828;SDS011;35723;51.194;5.112;2023-07-31T06:42:00;14.13;;;4.47;;
49828;SDS011;35723;51.194;5.112;2023-07-31T06:44:26;11.88;;;4.47;;
49828;SDS011;35723;51.194;5.112;2023-07-31T06:46:52;11.82;;;4.55;;
49828;SDS011;35723;51.194;5.112;2023-07-31T06:49:17;11.25;;;4.28;;
49828;SDS011;35723;51.194;5.112;2023-07-31T06:51:43;13.15;;;4.47;;
49828;SDS011;35723;51.194;5.112;2023-07-31T06:54:09;13.57;;;4.60;;
49828;SDS011;35723;51.194;5.112;2023-07-31T06:56:35;14.35;;;4.68;;
49828;SDS011;35723;51.194;5.112;2023-07-31T06:59:00;15.43;;;4.70;;
49828;SDS011;35723;51.194;5.112;2023-07-31T07:01:26;12.52;;;4.57;;
49828;SDS011;35723;51.194;5.112;2023-07-31T07:03:53;13.85;;;4.72;;
49828;SDS011;35723;51.194;5.112;2023-07-31T07:06:19;12.88;;;4.90;;
49828;SDS011;35723;51.194;5.112;2023-07-31T07:08:45;12.25;;;5.03;;
49828;SDS011;35723;51.194;5.112;2023-07-31T07:11:10;13.82;;;4.80;;
49828;SDS011;35723;51.194;5.112;2023-07-31T07:13:36;16.13;;;4.82;;
49828;SDS011;35723;51.194;5.112;2023-07-31T07:16:02;16.38;;;5.10;;
49828;SDS011;35723;51.194;5.112;2023-07-31T07:18:28;13.23;;;4.60;;
49828;SDS011;35723;51.194;5.112;2023-07-31T07:20:53;14.07;;;4.75;;
49828;SDS011;35723;51.194;5.112;2023-07-31T07:23:20;13.60;;;4.88;;
49828;SDS011;35723;51.194;5.112;2023-07-31T07:25:46;19.67;;;5.22;;
49828;SDS011;35723;51.194;5.112;2023-07-31T07:28:12;15.73;;;5.13;;
49828;SDS011;35723;51.194;5.112;2023-07-31T07:30:38;13.07;;;4.65;;
49828;SDS011;35723;51.194;5.112;2023-07-31T07:33:04;14.80;;;4.82;;
49828;SDS011;35723;51.194;5.112;2023-07-31T07:35:30;14.48;;;5.00;;
49828;SDS011;35723;51.194;5.112;2023-07-31T07:37:58;15.38;;;4.90;;
49828;SDS011;35723;51.194;5.112;2023-07-31T07:40:25;14.55;;;4.78;;
49828;SDS011;35723;51.194;5.112;2023-07-31T07:42:51;12.82;;;5.18;;
49828;SDS011;35723;51.194;5.112;2023-07-31T07:45:17;15.48;;;5.07;;
49828;SDS011;35723;51.194;5.112;2023-07-31T07:47:42;13.82;;;4.57;;
49828;SDS011;35723;51.194;5.112;2023-07-31T07:50:08;11.27;;;4.53;;
49828;SDS011;35723;51.194;5.112;2023-07-31T07:52:34;15.98;;;4.55;;
49828;SDS011;35723;51.194;5.112;2023-07-31T07:55:00;16.10;;;4.90;;
49828;SDS011;35723;51.194;5.112;2023-07-31T07:57:26;17.60;;;5.20;;
49828;SDS011;35723;51.194;5.112;2023-07-31T07:59:52;15.25;;;5.05;;
49828;SDS011;35723;51.194;5.112;2023-07-31T08:02:18;16.40;;;4.80;;
49828;SDS011;35723;51.194;5.112;2023-07-31T08:04:43;14.50;;;5.10;;
49828;SDS011;35723;51.194;5.112;2023-07-31T08:07:12;15.82;;;4.95;;
49828;SDS011;35723;51.194;5.112;2023-07-31T08:09:38;15.23;;;5.40;;
49828;SDS011;35723;51.194;5.112;2023-07-31T08:12:04;15.73;;;4.90;;
49828;SDS011;35723;51.194;5.112;2023-07-31T08:14:31;15.13;;;5.30;;
49828;SDS011;35723;51.194;5.112;2023-07-31T08:16:56;13.52;;;4.90;;
49828;SDS011;35723;51.194;5.112;2023-07-31T08:19:22;13.73;;;4.78;;
49828;SDS011;35723;51.194;5.112;2023-07-31T08:21:48;16.85;;;5.13;;
49828;SDS011;35723;51.194;5.112;2023-07-31T08:24:13;15.95;;;5.07;;
49828;SDS011;35723;51.194;5.112;2023-07-31T08:26:39;14.90;;;5.18;;
49828;SDS011;35723;51.194;5.112;2023-07-31T08:29:05;14.95;;;4.72;;
49828;SDS011;35723;51.194;5.112;2023-07-31T08:31:30;15.00;;;4.88;;
49828;SDS011;35723;51.194;5.112;2023-07-31T08:33:56;16.40;;;5.18;;
49828;SDS011;35723;51.194;5.112;2023-07-31T08:36:22;14.60;;;4.63;;
49828;SDS011;35723;51.194;5.112;2023-07-31T08:38:47;15.50;;;4.78;;
49828;SDS011;35723;51.194;5.112;2023-07-31T08:41:14;18.00;;;4.82;;
49828;SDS011;35723;51.194;5.112;2023-07-31T08:43:42;13.27;;;4.82;;
49828;SDS011;35723;51.194;5.112;2023-07-31T08:46:10;15.93;;;5.00;;
49828;SDS011;35723;51.194;5.112;2023-07-31T08:48:37;14.52;;;4.75;;
49828;SDS011;35723;51.194;5.112;2023-07-31T08:51:05;12.77;;;4.32;;
49828;SDS011;35723;51.194;5.112;2023-07-31T08:53:32;16.70;;;5.10;;
49828;SDS011;35723;51.194;5.112;2023-07-31T08:55:58;13.85;;;4.55;;
49828;SDS011;35723;51.194;5.112;2023-07-31T08:58:24;12.77;;;4.35;;
49828;SDS011;35723;51.194;5.112;2023-07-31T09:00:52;13.82;;;5.03;;
49828;SDS011;35723;51.194;5.112;2023-07-31T09:03:20;19.27;;;5.05;;
49828;SDS011;35723;51.194;5.112;2023-07-31T09:05:48;15.20;;;4.53;;
49828;SDS011;35723;51.194;5.112;2023-07-31T09:08:17;16.10;;;4.70;;
49828;SDS011;35723;51.194;5.112;2023-07-31T09:10:45;13.80;;;4.47;;
49828;SDS011;35723;51.194;5.112;2023-07-31T09:13:12;13.88;;;4.20;;
49828;SDS011;35723;51.194;5.112;2023-07-31T09:15:38;17.48;;;4.35;;
49828;SDS011;35723;51.194;5.112;2023-07-31T09:18:05;14.57;;;4.43;;
49828;SDS011;35723;51.194;5.112;2023-07-31T09:20:32;12.85;;;3.90;;
49828;SDS011;35723;51.194;5.112;2023-07-31T09:23:08;12.00;;;4.18;;
49828;SDS011;35723;51.194;5.112;2023-07-31T09:25:36;10.65;;;4.10;;
49828;SDS011;35723;51.194;5.112;2023-07-31T09:28:04;11.20;;;3.90;;
49828;SDS011;35723;51.194;5.112;2023-07-31T09:33:14;10.30;;;3.92;;
49828;SDS011;35723;51.194;5.112;2023-07-31T09:35:41;10.35;;;3.50;;
49828;SDS011;35723;51.194;5.112;2023-07-31T09:38:08;13.45;;;3.55;;
49828;SDS011;35723;51.194;5.112;2023-07-31T09:40:38;8.38;;;3.30;;
49828;SDS011;35723;51.194;5.112;2023-07-31T09:43:07;10.88;;;3.50;;
49828;SDS011;35723;51.194;5.112;2023-07-31T09:45:37;9.30;;;3.30;;
49828;SDS011;35723;51.194;5.112;2023-07-31T09:48:11;10.25;;;3.67;;
49828;SDS011;35723;51.194;5.112;2023-07-31T09:50:38;11.02;;;3.58;;
49828;SDS011;35723;51.194;5.112;2023-07-31T09:53:04;10.13;;;3.50;;
49828;SDS011;35723;51.194;5.112;2023-07-31T09:55:31;11.95;;;3.60;;
49828;SDS011;35723;51.194;5.112;2023-07-31T09:57:57;9.77;;;3.35;;
49828;SDS011;35723;51.194;5.112;2023-07-31T10:00:24;11.18;;;3.60;;
49828;SDS011;35723;51.194;5.112;2023-07-31T10:02:53;10.55;;;3.70;;
49828;SDS011;35723;51.194;5.112;2023-07-31T10:05:23;12.73;;;3.80;;
49828;SDS011;35723;51.194;5.112;2023-07-31T10:07:55;10.30;;;3.70;;
49828;SDS011;35723;51.194;5.112;2023-07-31T10:10:22;12.75;;;3.90;;
49828;SDS011;35723;51.194;5.112;2023-07-31T10:12:48;10.30;;;3.90;;
49828;SDS011;35723;51.194;5.112;2023-07-31T10:15:15;13.10;;;4.13;;
49828;SDS011;35723;51.194;5.112;2023-07-31T10:17:42;11.70;;;3.90;;
49828;SDS011;35723;51.194;5.112;2023-07-31T10:20:08;12.38;;;3.90;;
49828;SDS011;35723;51.194;5.112;2023-07-31T10:22:34;8.52;;;3.80;;
49828;SDS011;35723;51.194;5.112;2023-07-31T10:25:00;13.65;;;3.92;;
49828;SDS011;35723;51.194;5.112;2023-07-31T10:27:26;10.55;;;4.05;;
49828;SDS011;35723;51.194;5.112;2023-07-31T10:29:56;11.32;;;3.78;;
49828;SDS011;35723;51.194;5.112;2023-07-31T10:32:23;10.02;;;3.90;;
49828;SDS011;35723;51.194;5.112;2023-07-31T10:34:50;10.52;;;4.07;;
49828;SDS011;35723;51.194;5.112;2023-07-31T10:40:01;10.80;;;4.00;;
49828;SDS011;35723;51.194;5.112;2023-07-31T10:42:34;10.20;;;3.63;;
49828;SDS011;35723;51.194;5.112;2023-07-31T10:45:10;13.48;;;4.25;;
49828;SDS011;35723;51.194;5.112;2023-07-31T10:47:37;10.85;;;3.75;;
49828;SDS011;35723;51.194;5.112;2023-07-31T10:50:20;13.45;;;3.90;;
49828;SDS011;35723;51.194;5.112;2023-07-31T10:55:14;9.95;;;3.53;;
49828;SDS011;35723;51.194;5.112;2023-07-31T10:57:43;8.90;;;3.30;;
49828;SDS011;35723;51.194;5.112;2023-07-31T11:00:21;8.32;;;3.10;;
49828;SDS011;35723;51.194;5.112;2023-07-31T11:03:24;8.15;;;3.33;;
49828;SDS011;35723;51.194;5.112;2023-07-31T11:13:32;8.85;;;3.20;;
49828;SDS011;35723;51.194;5.112;2023-07-31T11:16:08;9.23;;;3.20;;
49828;SDS011;35723;51.194;5.112;2023-07-31T11:18:34;8.52;;;3.60;;
49828;SDS011;35723;51.194;5.112;2023-07-31T11:21:00;8.50;;;3.55;;
49828;SDS011;35723;51.194;5.112;2023-07-31T11:23:26;10.20;;;3.60;;
49828;SDS011;35723;51.194;5.112;2023-07-31T11:25:51;10.55;;;3.53;;
49828;SDS011;35723;51.194;5.112;2023-07-31T11:28:18;12.57;;;4.15;;
49828;SDS011;35723;51.194;5.112;2023-07-31T11:30:44;10.75;;;3.72;;
49828;SDS011;35723;51.194;5.112;2023-07-31T11:33:11;11.75;;;4.18;;
49828;SDS011;35723;51.194;5.112;2023-07-31T11:35:44;11.50;;;3.92;;
49828;SDS011;35723;51.194;5.112;2023-07-31T11:38:12;11.00;;;3.70;;
49828;SDS011;35723;51.194;5.112;2023-07-31T11:40:49;10.70;;;4.07;;
49828;SDS011;35723;51.194;5.112;2023-07-31T11:43:16;13.70;;;4.43;;
49828;SDS011;35723;51.194;5.112;2023-07-31T11:45:49;15.50;;;4.88;;
49828;SDS011;35723;51.194;5.112;2023-07-31T11:50:47;14.45;;;4.30;;
49828;SDS011;35723;51.194;5.112;2023-07-31T11:53:14;15.50;;;4.63;;
49828;SDS011;35723;51.194;5.112;2023-07-31T11:55:42;16.52;;;4.75;;
49828;SDS011;35723;51.194;5.112;2023-07-31T11:58:08;15.95;;;4.82;;
49828;SDS011;35723;51.194;5.112;2023-07-31T12:00:35;16.23;;;4.80;;
49828;SDS011;35723;51.194;5.112;2023-07-31T12:03:01;16.15;;;4.70;;
49828;SDS011;35723;51.194;5.112;2023-07-31T12:05:27;14.63;;;4.95;;
49828;SDS011;35723;51.194;5.112;2023-07-31T12:07:53;15.05;;;5.10;;
49828;SDS011;35723;51.194;5.112;2023-07-31T12:10:27;14.38;;;4.90;;
49828;SDS011;35723;51.194;5.112;2023-07-31T12:15:42;19.65;;;5.43;;
49828;SDS011;35723;51.194;5.112;2023-07-31T12:18:16;14.95;;;4.80;;
49828;SDS011;35723;51.194;5.112;2023-07-31T12:20:45;19.17;;;5.03;;
49828;SDS011;35723;51.194;5.112;2023-07-31T12:23:19;14.48;;;4.78;;
49828;SDS011;35723;51.194;5.112;2023-07-31T12:28:40;17.80;;;5.53;;
49828;SDS011;35723;51.194;5.112;2023-07-31T12:31:14;15.60;;;5.18;;
49828;SDS011;35723;51.194;5.112;2023-07-31T12:33:42;16.00;;;5.45;;
49828;SDS011;35723;51.194;5.112;2023-07-31T12:36:12;15.43;;;5.18;;
49828;SDS011;35723;51.194;5.112;2023-07-31T12:38:39;14.63;;;5.20;;
49828;SDS011;35723;51.194;5.112;2023-07-31T12:41:05;16.60;;;4.93;;
49828;SDS011;35723;51.194;5.112;2023-07-31T12:43:32;15.30;;;4.97;;
49828;SDS011;35723;51.194;5.112;2023-07-31T12:45:58;14.00;;;4.80;;
49828;SDS011;35723;51.194;5.112;2023-07-31T12:48:25;23.70;;;5.43;;
49828;SDS011;35723;51.194;5.112;2023-07-31T12:50:50;15.73;;;5.28;;
49828;SDS011;35723;51.194;5.112;2023-07-31T12:53:16;16.42;;;5.20;;
49828;SDS011;35723;51.194;5.112;2023-07-31T12:55:42;14.77;;;4.70;;
49828;SDS011;35723;51.194;5.112;2023-07-31T12:58:08;15.93;;;5.50;;
49828;SDS011;35723;51.194;5.112;2023-07-31T13:00:33;17.80;;;5.10;;
49828;SDS011;35723;51.194;5.112;2023-07-31T13:02:59;17.33;;;5.20;;
49828;SDS011;35723;51.194;5.112;2023-07-31T13:05:26;17.33;;;5.40;;
49828;SDS011;35723;51.194;5.112;2023-07-31T13:07:52;18.45;;;5.57;;
49828;SDS011;35723;51.194;5.112;2023-07-31T13:10:17;15.25;;;5.15;;
49828;SDS011;35723;51.194;5.112;2023-07-31T13:12:43;18.40;;;5.30;;
49828;SDS011;35723;51.194;5.112;2023-07-31T13:15:09;15.82;;;5.07;;
49828;SDS011;35723;51.194;5.112;2023-07-31T13:17:35;16.27;;;5.38;;
49828;SDS011;35723;51.194;5.112;2023-07-31T13:20:01;17.95;;;5.30;;
49828;SDS011;35723;51.194;5.112;2023-07-31T13:22:28;15.98;;;5.05;;
49828;SDS011;35723;51.194;5.112;2023-07-31T13:24:54;14.93;;;5.22;;
49828;SDS011;35723;51.194;5.112;2023-07-31T13:27:20;18.45;;;5.22;;
49828;SDS011;35723;51.194;5.112;2023-07-31T13:29:46;19.00;;;5.68;;
49828;SDS011;35723;51.194;5.112;2023-07-31T13:32:13;15.77;;;5.57;;
49828;SDS011;35723;51.194;5.112;2023-07-31T13:34:38;15.95;;;5.45;;
49828;SDS011;35723;51.194;5.112;2023-07-31T13:37:04;18.35;;;5.53;;
49828;SDS011;35723;51.194;5.112;2023-07-31T13:39:32;18.35;;;5.53;;
49828;SDS011;35723;51.194;5.112;2023-07-31T13:41:59;16.98;;;5.05;;
49828;SDS011;35723;51.194;5.112;2023-07-31T13:44:24;14.65;;;5.10;;
49828;SDS011;35723;51.194;5.112;2023-07-31T13:46:51;13.77;;;4.82;;
49828;SDS011;35723;51.194;5.112;2023-07-31T13:49:16;17.05;;;5.40;;
49828;SDS011;35723;51.194;5.112;2023-07-31T13:51:42;15.68;;;5.25;;
49828;SDS011;35723;51.194;5.112;2023-07-31T13:54:08;16.80;;;5.05;;
49828;SDS011;35723;51.194;5.112;2023-07-31T13:56:33;16.80;;;5.05;;
49828;SDS011;35723;51.194;5.112;2023-07-31T13:58:59;16.55;;;5.07;;
49828;SDS011;35723;51.194;5.112;2023-07-31T14:01:26;16.75;;;5.05;;
49828;SDS011;35723;51.194;5.112;2023-07-31T14:03:52;13.57;;;5.20;;
49828;SDS011;35723;51.194;5.112;2023-07-31T14:06:17;15.68;;;4.85;;
49828;SDS011;35723;51.194;5.112;2023-07-31T14:08:43;16.42;;;4.72;;
49828;SDS011;35723;51.194;5.112;2023-07-31T14:11:09;15.70;;;4.43;;
49828;SDS011;35723;51.194;5.112;2023-07-31T14:13:34;11.93;;;4.20;;
49828;SDS011;35723;51.194;5.112;2023-07-31T14:16:00;10.88;;;4.25;;
49828;SDS011;35723;51.194;5.112;2023-07-31T14:18:25;13.65;;;4.50;;
49828;SDS011;35723;51.194;5.112;2023-07-31T14:20:51;14.05;;;4.63;;
49828;SDS011;35723;51.194;5.112;2023-07-31T14:23:17;13.45;;;4.53;;
49828;SDS011;35723;51.194;5.112;2023-07-31T14:25:44;9.55;;;3.95;;
49828;SDS011;35723;51.194;5.112;2023-07-31T14:28:10;13.88;;;3.85;;
49828;SDS011;35723;51.194;5.112;2023-07-31T14:30:36;12.18;;;3.80;;
49828;SDS011;35723;51.194;5.112;2023-07-31T14:33:02;10.10;;;3.22;;
49828;SDS011;35723;51.194;5.112;2023-07-31T14:35:28;9.88;;;3.50;;
49828;SDS011;35723;51.194;5.112;2023-07-31T14:37:54;10.60;;;3.40;;
49828;SDS011;35723;51.194;5.112;2023-07-31T14:40:19;7.47;;;3.05;;
49828;SDS011;35723;51.194;5.112;2023-07-31T14:42:45;9.27;;;3.20;;
49828;SDS011;35723;51.194;5.112;2023-07-31T14:45:11;8.88;;;3.08;;
49828;SDS011;35723;51.194;5.112;2023-07-31T14:47:36;10.38;;;3.50;;
49828;SDS011;35723;51.194;5.112;2023-07-31T14:50:02;11.60;;;3.80;;
49828;SDS011;35723;51.194;5.112;2023-07-31T14:52:28;9.18;;;3.42;;
49828;SDS011;35723;51.194;5.112;2023-07-31T14:54:54;9.95;;;3.47;;
49828;SDS011;35723;51.194;5.112;2023-07-31T14:57:20;8.98;;;3.40;;
49828;SDS011;35723;51.194;5.112;2023-07-31T14:59:46;10.75;;;3.70;;